Brownfield, TX (79316)

8:10 PM CST on November 22, 2014 (GMT -0600)
WT_Meso Brownfield 2S | Change Station
CLOSE
Current Station
Personal Weather Station
Location: Brownfield, TX
Elevation: 3313 ft
Nearby Weather Stations

Elev 3313 ft 33.15 °N, 102.27 °W | Updated 45 minutes ago

Clear
Clear
53 °F
Feels Like 53 °F
N
10
Wind Variable Wind from WSW
Gusts 11.0 mph

Today
High -- | Low -- °F
--% Chance of Precip.
Yesterday
High -- | Low -- °F
Precip. -- in
7:26 AM 5:43 PM
New Moon, 0% visible
Pressure 29.80 in
Visibility 10.0 miles
Clouds Clear
Dew Point 28 °F
Humidity 40%
Rainfall -999.00 in
Snow Depth Not available.
UV 0 out of 12
Pollen 5.70 out of 12
Air Quality Not available.
Flu Activity Not available.
METAR KGNC 230155Z AUTO 26006KT 10SM CLR 12/00 A2980 RMK AO2 T01210001

More Conditions Fewer Conditions

Pressure 29.80 in
Visibility 10.0 miles
Clouds Clear
Dew Point 28 °F
Humidity 40%
Rainfall -999.00 in
Snow Depth Not available.
UV 0 out of 12
Pollen 5.70 out of 12
Air Quality Not available.
Flu Activity Not available.
METAR KGNC 230155Z AUTO 26006KT 10SM CLR 12/00 A2980 RMK AO2 T01210001

More Conditions Fewer Conditions

10-Day Weather Forecast

Almanac

Astronomy

Nov. 22, 2014 Rise Set
Actual Time
Civil Twilight
Nautical Twilight
Astronomical Twilight
Moon
Length of Visible Light
Length of Day
Tomorrow will be .
, % of the Moon is Illuminated

Today's Extremes

State Highs State Lows

Community

WunderPhotos

Upload Photos

1,772,971 photos uploaded!

WunderBlogs® & News

Nearby

Air Quality

  Air Quality AQ Index Pollutant
Not available.

Snow Depth

Station Depth Elevation

Earthquake Activity

City Distance Mag. Time & Date
Minimum magnitude displayed is 2.5.

Coastal Water Temperatures

Place Temperature

Nearby Weather Stations